Victoria, British Columbia

5:29 PM PST on January 28, 2015 (GMT -0800)
Oak Bay | Change Station
CLOSE
Current Station
Personal Weather Station
Location: Victoria, BRITISH COLUMBIA
Elevation: 26 ft
Nearby Weather Stations

Elev 26 ft 48.43 °N, 123.31 °W | Updated 4 minutes ago

Partly Cloudy
Partly Cloudy
48.1 °F
Feels Like 48 °F
N
2.0
Wind Variable Wind from NNE
Gusts 0.0 mph

Tomorrow is forecast to be nearly the same temperature as today.

Today
High -- | Low -- °F
--% Chance of Precip.
Yesterday
High -- | Low -- °F
Precip. -- in
7:47 AM 5:05 PM
Waxing Gibbous, 69% visible
Pressure 30.38 in
Visibility 15.0 miles
Clouds Few 25000 ft
Windchill 48 °F
Dew Point 44 °F
Humidity 86%
Rainfall 0.00 in
Snow Depth Not available.
UV 0 out of 12
Pollen Not available.
Air Quality Not available.
Flu Activity Not available.
METAR CYWH 290100Z 36005KT 15SM FEW250 09/05 A3037 RMK CI0 SLP285

More Conditions Fewer Conditions

Pressure 30.38 in
Visibility 15.0 miles
Clouds Few 25000 ft
Windchill 48 °F
Dew Point 44 °F
Humidity 86%
Rainfall 0.00 in
Snow Depth Not available.
UV 0 out of 12
Pollen Not available.
Air Quality Not available.
Flu Activity Not available.
METAR CYWH 290100Z 36005KT 15SM FEW250 09/05 A3037 RMK CI0 SLP285

More Conditions Fewer Conditions

10-Day Weather Forecast

Almanac

Astronomy

Jan. 28, 2015 Rise Set
Actual Time
Civil Twilight
Nautical Twilight
Astronomical Twilight
Moon
Length of Visible Light
Length of Day
Tomorrow will be .
, % of the Moon is Illuminated

Today's Extremes

Country Highs Country Lows

Community

WunderPhotos

Upload Photos

1,791,314 photos uploaded!

WunderBlogs® & News

Nearby

Air Quality

  Air Quality AQ Index Pollutant
Not available.

Snow Depth

Station Depth Elevation

Earthquake Activity

City Distance Mag. Time & Date
Minimum magnitude displayed is 2.5.

Coastal Water Temperatures

Place Temperature

Nearby Weather Stations